createdAt,value
2018-02-13T00:00:33.133Z,83.50
2018-02-13T00:03:01.320Z,83.50
2018-02-13T00:05:28.812Z,83.50
2018-02-13T00:07:56.248Z,83.50
2018-02-13T00:10:23.720Z,83.50
2018-02-13T00:12:51.186Z,83.50
2018-02-13T00:15:18.631Z,83.40
2018-02-13T00:17:46.104Z,83.40
2018-02-13T00:20:13.655Z,83.30
2018-02-13T00:22:47.947Z,83.30
2018-02-13T00:25:15.531Z,83.40
2018-02-13T00:27:42.987Z,83.50
2018-02-13T00:30:10.410Z,83.50
2018-02-13T00:32:38.720Z,83.50
2018-02-13T00:35:06.146Z,83.50
2018-02-13T00:37:34.331Z,83.40
2018-02-13T00:40:01.771Z,83.40
2018-02-13T00:42:29.959Z,83.60
2018-02-13T00:44:57.393Z,83.60
2018-02-13T00:47:24.821Z,83.60
2018-02-13T00:49:52.356Z,83.60
2018-02-13T00:52:19.782Z,83.60
2018-02-13T00:54:48.088Z,83.60
2018-02-13T00:57:15.570Z,83.50
2018-02-13T00:59:42.999Z,83.60
2018-02-13T01:02:10.468Z,83.70
2018-02-13T01:04:37.893Z,83.80
2018-02-13T01:07:05.316Z,83.80
2018-02-13T01:09:32.843Z,83.90
2018-02-13T01:12:00.272Z,83.90
2018-02-13T01:14:27.696Z,83.90
2018-02-13T01:16:55.203Z,84.00
2018-02-13T01:19:22.654Z,84.10
2018-02-13T01:21:50.075Z,84.10
2018-02-13T01:24:17.580Z,84.20
2018-02-13T01:26:44.999Z,84.20
2018-02-13T01:29:12.496Z,84.20
2018-02-13T01:31:39.964Z,84.20
2018-02-13T01:34:07.403Z,84.20
2018-02-13T01:36:34.856Z,84.30
2018-02-13T01:39:02.313Z,84.30
2018-02-13T01:41:29.736Z,84.40
2018-02-13T01:43:57.942Z,84.60
2018-02-13T01:46:25.408Z,85.20
2018-02-13T01:48:52.867Z,84.60
2018-02-13T01:51:20.285Z,84.60
2018-02-13T01:53:48.491Z,84.70
2018-02-13T01:56:15.912Z,84.60
2018-02-13T01:58:44.103Z,84.80
2018-02-13T02:01:11.582Z,84.70
2018-02-13T02:03:39.003Z,84.90
2018-02-13T02:06:07.219Z,85.00
2018-02-13T02:08:34.683Z,85.00
2018-02-13T02:11:02.116Z,85.10
2018-02-13T02:13:29.544Z,85.10
2018-02-13T02:15:57.015Z,85.10
2018-02-13T02:18:24.437Z,85.10
2018-02-13T02:20:51.927Z,85.00
2018-02-13T02:23:19.388Z,85.10
2018-02-13T02:25:46.840Z,85.10
2018-02-13T02:28:14.248Z,85.20
2018-02-13T02:30:41.773Z,85.30
2018-02-13T02:33:09.206Z,85.30
2018-02-13T02:35:36.644Z,85.40
2018-02-13T02:38:04.121Z,85.40
2018-02-13T02:40:31.596Z,85.40
2018-02-13T02:43:05.767Z,85.40
2018-02-13T02:45:33.976Z,85.50
2018-02-13T02:48:01.498Z,85.50
2018-02-13T02:50:29.700Z,85.40
2018-02-13T02:52:57.164Z,85.40
2018-02-13T02:55:24.619Z,85.50
2018-02-13T02:57:52.088Z,85.60
2018-02-13T03:00:19.535Z,85.60
2018-02-13T03:02:46.963Z,85.50
2018-02-13T03:05:14.455Z,85.60
2018-02-13T03:07:41.916Z,85.70
2018-02-13T03:10:09.464Z,85.60
2018-02-13T03:12:36.900Z,85.60
2018-02-13T03:15:04.337Z,85.80
2018-02-13T03:17:31.839Z,85.80
2018-02-13T03:19:59.296Z,85.80
2018-02-13T03:22:26.757Z,85.90
2018-02-13T03:24:54.230Z,85.90
2018-02-13T03:27:21.658Z,85.80
2018-02-13T03:29:49.124Z,85.90
2018-02-13T03:32:16.548Z,85.90
2018-02-13T03:34:44.756Z,86.10
2018-02-13T03:37:12.191Z,86.10
2018-02-13T03:39:39.667Z,86.00
2018-02-13T03:42:07.132Z,86.10
2018-02-13T03:44:34.587Z,86.20
2018-02-13T03:47:02.040Z,86.30
2018-02-13T03:49:29.475Z,86.30
2018-02-13T03:51:56.902Z,86.30
2018-02-13T03:54:25.088Z,86.40
2018-02-13T03:56:53.295Z,86.50
2018-02-13T03:59:20.715Z,86.50
2018-02-13T04:01:48.935Z,87.20
2018-02-13T04:04:16.400Z,86.50
2018-02-13T04:06:43.824Z,86.50
2018-02-13T04:09:11.253Z,86.60
2018-02-13T04:11:39.463Z,87.30
2018-02-13T04:14:06.935Z,86.70
2018-02-13T04:16:34.373Z,86.70
2018-02-13T04:19:03.727Z,86.80
2018-02-13T04:21:31.152Z,86.80
2018-02-13T04:23:58.575Z,86.90
2018-02-13T04:26:26.167Z,87.10
2018-02-13T04:28:53.591Z,87.00
2018-02-13T04:31:21.016Z,87.10
2018-02-13T04:33:48.458Z,87.10
2018-02-13T04:36:15.886Z,87.20
2018-02-13T04:38:43.311Z,87.30
2018-02-13T04:41:11.527Z,87.30
2018-02-13T04:43:38.984Z,87.30
2018-02-13T04:46:06.415Z,87.30
2018-02-13T04:48:33.896Z,87.40
2018-02-13T04:51:01.322Z,87.40
2018-02-13T04:53:29.516Z,87.60
2018-02-13T04:55:56.963Z,87.60
2018-02-13T04:58:24.443Z,87.60
2018-02-13T05:00:51.895Z,87.70
2018-02-13T05:03:19.365Z,87.70
2018-02-13T05:05:46.815Z,87.80
2018-02-13T05:08:14.269Z,87.80
2018-02-13T05:10:41.699Z,87.90
2018-02-13T05:13:09.129Z,87.90
2018-02-13T05:15:36.563Z,87.90
2018-02-13T05:18:04.000Z,88.00
2018-02-13T05:20:31.462Z,88.00
2018-02-13T05:22:58.916Z,88.10
2018-02-13T05:25:26.373Z,88.10
2018-02-13T05:27:53.828Z,88.10
2018-02-13T05:30:21.264Z,88.10
2018-02-13T05:32:48.708Z,88.20
2018-02-13T05:35:16.200Z,88.20
2018-02-13T05:37:43.631Z,88.30
2018-02-13T05:40:11.071Z,88.30
2018-02-13T05:42:39.285Z,88.40
2018-02-13T05:45:06.752Z,88.30
2018-02-13T05:47:34.308Z,88.40
2018-02-13T05:50:01.856Z,88.50
2018-02-13T05:52:29.324Z,88.60
2018-02-13T05:54:56.778Z,88.50
2018-02-13T05:57:24.240Z,88.60
2018-02-13T05:59:51.664Z,88.60
2018-02-13T06:02:19.147Z,88.50
2018-02-13T06:04:46.588Z,88.50
2018-02-13T06:07:14.012Z,88.60
2018-02-13T06:09:41.479Z,88.60
2018-02-13T06:12:08.937Z,88.70
2018-02-13T06:14:36.373Z,88.70
2018-02-13T06:17:03.820Z,88.70
2018-02-13T06:19:31.252Z,88.80
2018-02-13T06:21:58.685Z,88.80
2018-02-13T06:24:26.157Z,88.80
2018-02-13T06:26:54.380Z,88.90
2018-02-13T06:29:21.847Z,88.90
2018-02-13T06:31:49.304Z,88.90
2018-02-13T06:34:16.802Z,88.90
2018-02-13T06:36:44.999Z,88.90
2018-02-13T06:39:12.449Z,88.90
2018-02-13T06:41:39.899Z,89.00
2018-02-13T06:44:08.097Z,89.10
2018-02-13T06:46:35.568Z,89.10
2018-02-13T06:49:03.003Z,89.00
2018-02-13T06:51:30.440Z,89.00
2018-02-13T06:53:58.652Z,89.10
2018-02-13T06:56:26.087Z,89.10
2018-02-13T06:58:53.516Z,89.10
2018-02-13T07:01:21.739Z,89.20
2018-02-13T07:03:49.151Z,89.20
2018-02-13T07:06:17.351Z,89.20
2018-02-13T07:08:44.835Z,89.20
2018-02-13T07:11:12.272Z,89.20
2018-02-13T07:13:39.751Z,89.20
2018-02-13T07:16:07.202Z,89.30
2018-02-13T07:18:34.704Z,89.20
2018-02-13T07:21:02.136Z,89.30
2018-02-13T07:23:29.588Z,89.30
2018-02-13T07:25:57.029Z,89.30
2018-02-13T07:28:24.468Z,89.20
2018-02-13T07:30:51.944Z,89.20
2018-02-13T07:33:19.360Z,89.20
2018-02-13T07:35:47.552Z,89.20
2018-02-13T07:38:15.037Z,89.20
2018-02-13T07:40:42.467Z,89.20
2018-02-13T07:43:09.948Z,89.10
2018-02-13T07:45:37.404Z,89.20
2018-02-13T07:48:04.861Z,89.10
2018-02-13T07:50:32.335Z,89.10
2018-02-13T07:52:59.771Z,89.10
2018-02-13T07:55:27.288Z,89.00
2018-02-13T07:57:55.522Z,88.90
2018-02-13T08:00:22.964Z,88.90
2018-02-13T08:02:50.483Z,88.80
2018-02-13T08:05:17.906Z,88.60
2018-02-13T08:07:46.124Z,88.60
2018-02-13T08:10:13.533Z,88.60
2018-02-13T08:12:41.720Z,88.40
2018-02-13T08:15:09.156Z,88.40
2018-02-13T08:17:37.386Z,88.30
2018-02-13T08:20:04.822Z,88.30
2018-02-13T08:22:32.284Z,88.20
2018-02-13T08:24:59.724Z,88.20
2018-02-13T08:27:27.199Z,88.10
2018-02-13T08:29:54.785Z,87.90
2018-02-13T08:32:22.217Z,87.80
2018-02-13T08:34:49.689Z,87.70
2018-02-13T08:37:17.132Z,87.50
2018-02-13T08:39:44.612Z,87.40
2018-02-13T08:42:12.044Z,87.30
2018-02-13T08:44:39.490Z,87.00
2018-02-13T08:47:06.916Z,86.80
2018-02-13T08:49:35.108Z,86.40
2018-02-13T08:52:02.588Z,86.40
2018-02-13T08:54:30.030Z,86.20
2018-02-13T08:56:57.505Z,86.10
2018-02-13T08:59:24.939Z,85.90
2018-02-13T09:01:52.432Z,85.70
2018-02-13T09:04:19.876Z,85.40
2018-02-13T09:06:47.399Z,85.20
2018-02-13T09:09:14.813Z,85.00
2018-02-13T09:11:42.300Z,84.70
2018-02-13T09:14:10.537Z,84.50
2018-02-13T09:16:37.960Z,84.40
2018-02-13T09:19:05.444Z,84.30
2018-02-13T09:21:32.884Z,83.90
2018-02-13T09:24:00.352Z,83.80
2018-02-13T09:26:27.777Z,83.50
2018-02-13T09:28:55.271Z,83.40
2018-02-13T09:31:22.694Z,83.20
2018-02-13T09:33:50.123Z,83.10
2018-02-13T09:36:17.637Z,82.70
2018-02-13T09:38:45.096Z,82.50
2018-02-13T09:41:12.565Z,82.10
2018-02-13T09:43:40.061Z,82.00
2018-02-13T09:46:07.429Z,81.90
2018-02-13T09:48:35.660Z,81.30
2018-02-13T09:51:03.211Z,81.30
2018-02-13T09:53:30.636Z,81.10
2018-02-13T09:55:58.061Z,81.00
2018-02-13T09:58:25.491Z,80.80
2018-02-13T10:00:52.952Z,80.70
2018-02-13T10:03:20.376Z,80.60
2018-02-13T10:05:47.938Z,80.40
2018-02-13T10:08:15.443Z,80.20
2018-02-13T10:10:42.880Z,80.10
2018-02-13T10:13:10.336Z,80.00
2018-02-13T10:15:37.744Z,79.80
2018-02-13T10:18:05.236Z,79.80
2018-02-13T10:20:32.681Z,79.40
2018-02-13T10:23:00.137Z,79.20
2018-02-13T10:25:27.594Z,78.90
2018-02-13T10:27:55.032Z,78.80
2018-02-13T10:30:22.456Z,78.40
2018-02-13T10:32:49.882Z,78.10
2018-02-13T10:35:17.318Z,78.40
2018-02-13T10:37:44.784Z,77.90
2018-02-13T10:40:12.216Z,77.80
2018-02-13T10:42:39.760Z,77.50
2018-02-13T10:45:07.192Z,77.20
2018-02-13T10:47:34.646Z,77.00
2018-02-13T10:50:02.978Z,77.50
2018-02-13T10:52:30.395Z,76.30
2018-02-13T10:54:57.871Z,75.90
2018-02-13T10:57:25.354Z,75.60
2018-02-13T10:59:52.798Z,75.40
2018-02-13T11:02:22.686Z,75.30
2018-02-13T11:04:50.149Z,75.10
2018-02-13T11:07:17.589Z,74.70
2018-02-13T11:09:45.009Z,74.40
2018-02-13T11:12:13.236Z,74.80
2018-02-13T11:14:40.656Z,74.00
2018-02-13T11:17:08.843Z,73.60
2018-02-13T11:19:36.328Z,73.60
2018-02-13T11:22:03.784Z,73.60
2018-02-13T11:24:31.210Z,73.60
2018-02-13T11:26:59.452Z,73.10
2018-02-13T11:29:27.650Z,72.90
2018-02-13T11:31:55.848Z,72.90
2018-02-13T11:34:24.159Z,72.50
2018-02-13T11:36:51.589Z,72.50
2018-02-13T11:39:19.057Z,72.00
2018-02-13T11:41:46.490Z,72.00
2018-02-13T11:44:13.913Z,71.80
2018-02-13T11:46:42.140Z,71.40
2018-02-13T11:49:09.582Z,71.40
2018-02-13T11:51:37.052Z,71.30
2018-02-13T11:54:04.480Z,71.30
2018-02-13T11:56:32.680Z,70.90
2018-02-13T11:59:01.045Z,70.90
2018-02-13T12:01:28.464Z,70.50
2018-02-13T12:03:56.676Z,70.50
2018-02-13T12:06:24.158Z,70.40
2018-02-13T12:08:51.616Z,71.20
2018-02-13T12:11:19.057Z,70.40
2018-02-13T12:13:46.528Z,70.30
2018-02-13T12:16:13.944Z,70.10
2018-02-13T12:18:41.378Z,69.80
2018-02-13T12:21:08.807Z,69.10
2018-02-13T12:23:37.025Z,67.50
2018-02-13T12:26:04.456Z,67.50
2018-02-13T12:28:31.880Z,66.90
2018-02-13T12:31:00.117Z,66.70
2018-02-13T12:33:27.576Z,66.00
2018-02-13T12:35:55.008Z,65.80
2018-02-13T12:38:22.428Z,65.80
2018-02-13T12:40:50.648Z,66.40
2018-02-13T12:43:18.056Z,65.70
2018-02-13T12:45:46.299Z,65.70
2018-02-13T12:48:13.744Z,65.70
2018-02-13T12:50:41.167Z,65.30
2018-02-13T12:53:08.656Z,65.10
2018-02-13T12:55:36.115Z,65.30
2018-02-13T12:58:03.535Z,65.40
2018-02-13T13:00:31.747Z,65.20
2018-02-13T13:02:59.195Z,65.20
2018-02-13T13:05:26.741Z,65.30
2018-02-13T13:07:54.229Z,65.50
2018-02-13T13:10:21.652Z,65.00
2018-02-13T13:12:49.183Z,64.60
2018-02-13T13:15:17.372Z,64.20
2018-02-13T13:17:45.687Z,64.20
2018-02-13T13:20:13.108Z,64.10
2018-02-13T13:22:41.320Z,63.80
2018-02-13T13:25:08.756Z,63.80
2018-02-13T13:27:36.175Z,63.90
2018-02-13T13:30:03.688Z,63.80
2018-02-13T13:32:31.150Z,63.30
2018-02-13T13:34:58.597Z,62.80
2018-02-13T13:37:26.008Z,62.90
2018-02-13T13:39:54.256Z,63.20
2018-02-13T13:42:21.675Z,62.50
2018-02-13T13:44:49.149Z,62.30
2018-02-13T13:47:16.584Z,61.90
2018-02-13T13:49:44.004Z,61.50
2018-02-13T13:52:12.192Z,60.10
2018-02-13T13:54:40.403Z,59.40
2018-02-13T13:57:07.820Z,59.30
2018-02-13T13:59:36.008Z,58.30
2018-02-13T14:02:03.492Z,58.30
2018-02-13T14:04:30.890Z,57.90
2018-02-13T14:06:59.076Z,57.20
2018-02-13T14:09:27.300Z,58.20
2018-02-13T14:18:41.460Z,57.00
2018-02-13T14:21:09.676Z,55.80
2018-02-13T14:23:37.104Z,55.80
2018-02-13T14:26:04.588Z,56.30
2018-02-13T14:28:32.045Z,56.60
2018-02-13T14:30:59.468Z,56.50
2018-02-13T14:33:26.959Z,56.20
2018-02-13T14:35:54.390Z,56.20
2018-02-13T14:38:21.820Z,56.40
2018-02-13T14:40:50.020Z,56.50
2018-02-13T14:43:17.505Z,56.50
2018-02-13T14:45:44.952Z,55.90
2018-02-13T14:48:12.419Z,55.50
2018-02-13T14:50:39.886Z,54.80
2018-02-13T14:53:07.328Z,54.10
2018-02-13T14:55:34.808Z,54.10
2018-02-13T14:58:02.238Z,54.00
2018-02-13T15:00:29.656Z,54.20
2018-02-13T15:02:57.879Z,54.20
2018-02-13T15:05:25.305Z,54.10
2018-02-13T15:07:53.526Z,53.40
2018-02-13T15:10:20.960Z,53.40
2018-02-13T15:12:48.392Z,53.20
2018-02-13T15:15:16.727Z,53.40
2018-02-13T15:17:49.769Z,53.70
2018-02-13T15:20:17.188Z,53.30
2018-02-13T15:22:44.628Z,53.80
2018-02-13T15:25:12.064Z,54.00
2018-02-13T15:27:39.485Z,53.80
2018-02-13T15:30:06.917Z,54.00
2018-02-13T15:32:35.124Z,53.70
2018-02-13T15:35:02.734Z,53.70
2018-02-13T15:37:30.159Z,54.50
2018-02-13T15:39:57.594Z,53.50
2018-02-13T15:42:25.072Z,53.60
2018-02-13T15:44:52.503Z,53.50
2018-02-13T15:47:19.937Z,53.50
2018-02-13T15:49:47.448Z,53.40
2018-02-13T15:52:14.956Z,53.20
2018-02-13T15:54:43.241Z,54.00
2018-02-13T15:57:11.431Z,53.40
2018-02-13T15:59:38.855Z,53.40
2018-02-13T16:02:06.336Z,53.30
2018-02-13T16:04:34.588Z,53.40
2018-02-13T16:07:02.107Z,53.40
2018-02-13T16:09:29.542Z,53.60
2018-02-13T16:11:57.039Z,54.10
2018-02-13T16:14:24.476Z,54.40
2018-02-13T16:16:51.921Z,54.80
2018-02-13T16:19:19.404Z,55.30
2018-02-13T16:21:46.833Z,55.80
2018-02-13T16:24:14.260Z,56.30
2018-02-13T16:26:42.477Z,56.60
2018-02-13T16:29:09.926Z,56.50
2018-02-13T16:31:37.702Z,56.80
2018-02-13T16:34:05.186Z,56.90
2018-02-13T16:36:32.616Z,57.10
2018-02-13T16:39:00.031Z,57.30
2018-02-13T16:41:28.228Z,57.60
2018-02-13T16:43:55.704Z,57.60
2018-02-13T16:46:23.148Z,57.70
2018-02-13T16:48:50.664Z,58.00
2018-02-13T16:51:18.071Z,58.20
2018-02-13T16:53:45.532Z,58.30
2018-02-13T16:56:12.960Z,58.40
2018-02-13T16:58:40.384Z,58.60
2018-02-13T17:01:07.821Z,58.70
2018-02-13T17:03:35.245Z,58.80
2018-02-13T17:06:02.725Z,59.00
2018-02-13T17:08:30.166Z,59.30
2018-02-13T17:10:57.637Z,59.30
2018-02-13T17:13:25.058Z,59.30
2018-02-13T17:15:52.511Z,59.40
2018-02-13T17:18:20.736Z,59.60
2018-02-13T17:20:48.166Z,59.60
2018-02-13T17:23:15.657Z,59.70
2018-02-13T17:25:43.093Z,59.80
2018-02-13T17:28:10.520Z,59.90
2018-02-13T17:30:37.983Z,59.90
2018-02-13T17:33:05.462Z,60.00
2018-02-13T17:35:32.884Z,60.10
2018-02-13T17:38:01.085Z,60.30
2018-02-13T17:40:28.508Z,60.20
2018-02-13T17:42:56.701Z,61.00
2018-02-13T17:45:24.185Z,60.90
2018-02-13T17:47:51.645Z,60.90
2018-02-13T17:50:19.124Z,60.90
2018-02-13T17:52:46.572Z,60.90
2018-02-13T17:55:14.004Z,61.00
2018-02-13T17:57:41.473Z,61.10
2018-02-13T18:00:08.928Z,61.20
2018-02-13T18:02:36.382Z,61.10
2018-02-13T18:05:03.840Z,61.20
2018-02-13T18:07:31.281Z,61.30
2018-02-13T18:09:58.748Z,61.40
2018-02-13T18:12:26.176Z,61.50
2018-02-13T18:14:54.376Z,61.70
2018-02-13T18:17:21.839Z,61.70
2018-02-13T18:19:49.296Z,61.50
2018-02-13T18:22:16.752Z,61.50
2018-02-13T18:24:44.207Z,61.50
2018-02-13T18:27:11.664Z,61.50
2018-02-13T18:29:39.126Z,61.50
2018-02-13T18:32:06.580Z,61.50
2018-02-13T18:34:34.005Z,61.50
2018-02-13T18:37:02.208Z,61.60
2018-02-13T18:39:29.664Z,61.60
2018-02-13T18:41:57.073Z,61.70
2018-02-13T18:44:25.508Z,61.80
2018-02-13T18:46:52.932Z,62.50
2018-02-13T18:49:20.363Z,62.20
2018-02-13T18:51:47.871Z,62.30
2018-02-13T18:54:15.276Z,62.50
2018-02-13T18:56:42.797Z,62.60
2018-02-13T18:59:10.259Z,62.70
2018-02-13T19:01:37.736Z,62.80
2018-02-13T19:04:05.171Z,63.00
2018-02-13T19:06:32.619Z,63.00
2018-02-13T19:09:00.076Z,63.20
2018-02-13T19:11:27.535Z,63.30
2018-02-13T19:13:55.069Z,63.30
2018-02-13T19:16:22.539Z,63.30
2018-02-13T19:18:49.990Z,63.40
2018-02-13T19:21:17.420Z,63.50
2018-02-13T19:23:44.845Z,63.60
2018-02-13T19:26:12.363Z,63.60
2018-02-13T19:28:39.816Z,63.60
2018-02-13T19:31:07.239Z,63.80
2018-02-13T19:33:35.441Z,63.80
2018-02-13T19:36:02.908Z,63.80
2018-02-13T19:38:30.309Z,64.00
2018-02-13T19:40:57.763Z,63.90
2018-02-13T19:43:25.200Z,63.90
2018-02-13T19:45:52.636Z,64.00
2018-02-13T19:48:20.092Z,64.10
2018-02-13T19:50:47.559Z,64.10
2018-02-13T19:53:15.004Z,64.10
2018-02-13T19:55:42.428Z,64.10
2018-02-13T19:58:09.880Z,64.20
2018-02-13T20:00:38.073Z,64.30
2018-02-13T20:03:05.550Z,64.30
2018-02-13T20:05:32.981Z,64.20
2018-02-13T20:08:00.471Z,64.10
2018-02-13T20:10:27.911Z,64.30
2018-02-13T20:12:55.348Z,64.30
2018-02-13T20:15:22.931Z,64.30
2018-02-13T20:17:50.384Z,64.40
2018-02-13T20:20:17.841Z,64.50
2018-02-13T20:22:45.300Z,64.60
2018-02-13T20:25:12.759Z,64.70
2018-02-13T20:27:40.236Z,64.90
2018-02-13T20:30:07.776Z,64.90
2018-02-13T20:32:35.212Z,65.10
2018-02-13T20:35:02.642Z,65.20
2018-02-13T20:37:30.857Z,65.50
2018-02-13T20:39:58.316Z,65.40
2018-02-13T20:42:25.801Z,65.40
2018-02-13T20:44:53.236Z,65.50
2018-02-13T20:47:20.666Z,65.60
2018-02-13T20:49:48.106Z,65.60
2018-02-13T20:52:16.290Z,65.70
2018-02-13T20:54:44.495Z,65.70
2018-02-13T20:57:11.933Z,65.70
2018-02-13T20:59:39.353Z,65.80
2018-02-13T21:02:06.804Z,66.00
2018-02-13T21:04:34.348Z,66.00
2018-02-13T21:07:01.748Z,66.10
2018-02-13T21:09:29.176Z,66.10
2018-02-13T21:11:56.692Z,66.20
2018-02-13T21:14:24.125Z,66.30
2018-02-13T21:16:51.612Z,66.30
2018-02-13T21:19:19.064Z,66.40
2018-02-13T21:21:46.518Z,66.50
2018-02-13T21:24:13.917Z,66.60
2018-02-13T21:26:41.436Z,66.60
2018-02-13T21:29:08.864Z,66.70
2018-02-13T21:31:37.052Z,66.70
2018-02-13T21:34:04.487Z,66.80
2018-02-13T21:36:32.684Z,67.00
2018-02-13T21:39:00.115Z,67.00
2018-02-13T21:41:28.328Z,67.10
2018-02-13T21:43:55.749Z,67.10
2018-02-13T21:46:23.940Z,67.30
2018-02-13T21:48:51.398Z,67.30
2018-02-13T21:51:18.871Z,67.30
2018-02-13T21:53:46.300Z,67.30
2018-02-13T21:56:14.628Z,67.50
2018-02-13T21:58:42.065Z,67.50
2018-02-13T22:01:09.512Z,67.60
2018-02-13T22:03:36.987Z,67.60
2018-02-13T22:06:04.510Z,67.70
2018-02-13T22:08:32.000Z,67.70
2018-02-13T22:10:59.463Z,67.70
2018-02-13T22:13:26.916Z,67.80
2018-02-13T22:15:54.344Z,67.90
2018-02-13T22:18:21.792Z,68.10
2018-02-13T22:20:50.008Z,68.20
2018-02-13T22:23:17.449Z,68.90
2018-02-13T22:25:44.878Z,68.10
2018-02-13T22:28:13.100Z,68.30
2018-02-13T22:30:40.524Z,68.30
2018-02-13T22:33:07.960Z,68.40
2018-02-13T22:35:36.212Z,68.60
2018-02-13T22:38:03.629Z,68.50
2018-02-13T22:40:31.087Z,68.60
2018-02-13T22:42:58.558Z,68.80
2018-02-13T22:45:26.004Z,68.80
2018-02-13T22:47:53.489Z,68.90
2018-02-13T22:50:20.964Z,69.00
2018-02-13T22:52:48.424Z,69.10
2018-02-13T22:55:15.859Z,69.10
2018-02-13T22:57:43.320Z,69.10
2018-02-13T23:00:10.866Z,69.20
2018-02-13T23:02:38.301Z,69.30
2018-02-13T23:05:05.765Z,69.30
2018-02-13T23:07:33.224Z,69.20
2018-02-13T23:10:00.779Z,69.00
2018-02-13T23:12:28.193Z,69.00
2018-02-13T23:14:55.707Z,68.80
2018-02-13T23:17:23.253Z,68.90
2018-02-13T23:19:50.722Z,69.00
2018-02-13T23:22:18.180Z,69.10
2018-02-13T23:24:45.617Z,69.00
2018-02-13T23:27:13.084Z,69.10
2018-02-13T23:29:40.510Z,69.10
2018-02-13T23:32:08.002Z,69.00
2018-02-13T23:34:35.456Z,69.10
2018-02-13T23:37:02.883Z,69.20
2018-02-13T23:39:31.080Z,69.30
2018-02-13T23:41:58.548Z,69.30
2018-02-13T23:44:26.000Z,69.40
2018-02-13T23:46:53.456Z,69.50
2018-02-13T23:49:20.880Z,69.60
2018-02-13T23:51:49.060Z,70.30
2018-02-13T23:54:16.496Z,69.60
2018-02-13T23:56:44.675Z,70.20
2018-02-13T23:59:12.898Z,69.70
